PRIVATE WETTERSTATION BILLIGHEIM-ALLFELD                       ZURCK
Wetterdaten: Sonntag, 04.06.2017
Datum Zeit Temp. A. Temp. A. min Temp. A. max Feuchte A. Luftdruck Regen Wind Richtung Richtung Sonnenschein ET Solar Taupunkt Windchill Windben Empfang
04.06.2017 00:00 16,4 C 16,4 C 16,4 C 90 % 1009,0 hPa 0,0 l/m 0,0 km/h (0 Bft) N 0 0 min 0,000 mm 0 W/m 14,8 C 16,4 C 0,0 km/h (0 Bft) 97 %
04.06.2017 00:10 16,3 C 16,3 C 16,4 C 90 % 1008,9 hPa 0,0 l/m 0,0 km/h (0 Bft) N 0 0 min 0,000 mm 0 W/m 14,7 C 16,3 C 0,0 km/h (0 Bft) 97 %
04.06.2017 00:20 16,2 C 16,2 C 16,3 C 90 % 1008,7 hPa 0,0 l/m 0,0 km/h (0 Bft) N 0 0 min 0,000 mm 0 W/m 14,6 C 16,2 C 0,0 km/h (0 Bft) 97 %
04.06.2017 00:30 16,2 C 16,2 C 16,2 C 90 % 1008,9 hPa 0,0 l/m 0,0 km/h (0 Bft) NW 315 0 min 0,000 mm 0 W/m 14,6 C 16,2 C 1,6 km/h (1 Bft) 98 %
04.06.2017 00:40 16,2 C 16,2 C 16,3 C 90 % 1009,2 hPa 0,0 l/m 0,0 km/h (0 Bft) N 0 0 min 0,000 mm 0 W/m 14,6 C 16,2 C 0,0 km/h (0 Bft) 97 %
04.06.2017 00:50 16,2 C 16,2 C 16,2 C 90 % 1009,3 hPa 0,0 l/m 0,0 km/h (0 Bft) N 0 0 min 0,000 mm 0 W/m 14,6 C 16,2 C 0,0 km/h (0 Bft) 98 %
04.06.2017 01:00 16,2 C 16,2 C 16,2 C 90 % 1009,3 hPa 0,0 l/m 0,0 km/h (0 Bft) SW 225 0 min 0,000 mm 0 W/m 14,6 C 16,2 C 1,6 km/h (1 Bft) 98 %
04.06.2017 01:10 16,2 C 16,2 C 16,2 C 90 % 1009,4 hPa 0,0 l/m 0,0 km/h (0 Bft) N 0 0 min 0,000 mm 0 W/m 14,6 C 16,2 C 0,0 km/h (0 Bft) 87 %
04.06.2017 01:20 16,2 C 16,2 C 16,2 C 90 % 1009,3 hPa 0,0 l/m 0,0 km/h (0 Bft) SW 225 0 min 0,000 mm 0 W/m 14,6 C 16,2 C 1,6 km/h (1 Bft) 98 %
04.06.2017 01:30 16,2 C 16,2 C 16,2 C 90 % 1009,3 hPa 0,0 l/m 0,0 km/h (0 Bft) SW 225 0 min 0,000 mm 0 W/m 14,6 C 16,2 C 4,8 km/h (1 Bft) 97 %
04.06.2017 01:40 16,2 C 16,2 C 16,2 C 90 % 1009,2 hPa 0,0 l/m 0,0 km/h (0 Bft) N 0 0 min 0,000 mm 0 W/m 14,6 C 16,2 C 0,0 km/h (0 Bft) 98 %
04.06.2017 01:50 16,3 C 16,2 C 16,3 C 90 % 1009,2 hPa 0,2 l/m 0,0 km/h (0 Bft) SW 225 0 min 0,000 mm 0 W/m 14,7 C 16,3 C 1,6 km/h (1 Bft) 97 %
04.06.2017 02:00 16,3 C 16,2 C 16,3 C 90 % 1009,1 hPa 0,0 l/m 0,0 km/h (0 Bft) N 0 0 min 0,000 mm 0 W/m 14,7 C 16,3 C 0,0 km/h (0 Bft) 97 %
04.06.2017 02:10 16,3 C 16,3 C 16,3 C 90 % 1009,1 hPa 0,0 l/m 0,0 km/h (0 Bft) N 0 0 min 0,000 mm 0 W/m 14,7 C 16,3 C 0,0 km/h (0 Bft) 97 %
04.06.2017 02:20 16,3 C 16,3 C 16,3 C 90 % 1009,1 hPa 0,2 l/m 0,0 km/h (0 Bft) N 0 0 min 0,000 mm 0 W/m 14,7 C 16,3 C 0,0 km/h (0 Bft) 97 %
04.06.2017 02:30 16,3 C 16,3 C 16,3 C 91 % 1009,0 hPa 0,0 l/m 0,0 km/h (0 Bft) N 0 0 min 0,000 mm 0 W/m 14,8 C 16,3 C 0,0 km/h (0 Bft) 98 %
04.06.2017 02:40 16,3 C 16,3 C 16,3 C 91 % 1008,9 hPa 0,0 l/m 0,0 km/h (0 Bft) N 0 0 min 0,000 mm 0 W/m 14,8 C 16,3 C 0,0 km/h (0 Bft) 97 %
04.06.2017 02:50 16,3 C 16,3 C 16,3 C 91 % 1008,9 hPa 0,2 l/m 0,0 km/h (0 Bft) N 0 0 min 0,000 mm 0 W/m 14,8 C 16,3 C 0,0 km/h (0 Bft) 98 %
04.06.2017 03:00 16,3 C 16,3 C 16,3 C 91 % 1008,7 hPa 0,0 l/m 0,0 km/h (0 Bft) N 0 0 min 0,000 mm 0 W/m 14,8 C 16,3 C 0,0 km/h (0 Bft) 97 %
04.06.2017 03:10 16,3 C 16,3 C 16,3 C 91 % 1008,6 hPa 0,2 l/m 0,0 km/h (0 Bft) N 0 0 min 0,000 mm 0 W/m 14,8 C 16,3 C 0,0 km/h (0 Bft) 98 %
04.06.2017 03:20 16,2 C 16,2 C 16,3 C 91 % 1008,5 hPa 0,0 l/m 0,0 km/h (0 Bft) N 0 0 min 0,000 mm 0 W/m 14,7 C 16,2 C 0,0 km/h (0 Bft) 98 %
04.06.2017 03:30 16,2 C 16,2 C 16,2 C 91 % 1008,3 hPa 0,0 l/m 0,0 km/h (0 Bft) N 0 0 min 0,000 mm 0 W/m 14,7 C 16,2 C 0,0 km/h (0 Bft) 97 %
04.06.2017 03:40 16,2 C 16,2 C 16,2 C 91 % 1008,2 hPa 0,0 l/m 0,0 km/h (0 Bft) N 0 0 min 0,000 mm 0 W/m 14,7 C 16,2 C 0,0 km/h (0 Bft) 98 %
04.06.2017 03:50 16,2 C 16,2 C 16,2 C 91 % 1008,1 hPa 0,0 l/m 0,0 km/h (0 Bft) N 0 0 min 0,000 mm 0 W/m 14,7 C 16,2 C 0,0 km/h (0 Bft) 97 %
04.06.2017 04:00 16,2 C 16,2 C 16,2 C 91 % 1008,1 hPa 0,0 l/m 0,0 km/h (0 Bft) N 0 0 min 0,000 mm 0 W/m 14,7 C 16,2 C 0,0 km/h (0 Bft) 98 %
04.06.2017 04:10 16,2 C 16,1 C 16,2 C 91 % 1008,1 hPa 0,0 l/m 0,0 km/h (0 Bft) N 0 0 min 0,000 mm 0 W/m 14,7 C 16,2 C 0,0 km/h (0 Bft) 97 %
04.06.2017 04:20 16,1 C 16,1 C 16,2 C 91 % 1008,0 hPa 0,0 l/m 0,0 km/h (0 Bft) N 0 0 min 0,000 mm 0 W/m 14,6 C 16,1 C 0,0 km/h (0 Bft) 98 %
04.06.2017 04:30 16,1 C 16,1 C 16,2 C 91 % 1008,0 hPa 0,4 l/m 0,0 km/h (0 Bft) N 0 0 min 0,000 mm 0 W/m 14,6 C 16,1 C 0,0 km/h (0 Bft) 97 %
04.06.2017 04:40 16,1 C 16,1 C 16,1 C 91 % 1008,0 hPa 0,0 l/m 0,0 km/h (0 Bft) N 0 0 min 0,000 mm 0 W/m 14,6 C 16,1 C 0,0 km/h (0 Bft) 97 %
04.06.2017 04:50 16,1 C 16,1 C 16,1 C 91 % 1007,9 hPa 0,0 l/m 0,0 km/h (0 Bft) N 0 0 min 0,000 mm 0 W/m 14,6 C 16,1 C 0,0 km/h (0 Bft) 98 %
04.06.2017 05:00 16,1 C 16,1 C 16,1 C 91 % 1007,9 hPa 0,2 l/m 0,0 km/h (0 Bft) N 0 0 min 0,000 mm 0 W/m 14,6 C 16,1 C 0,0 km/h (0 Bft) 97 %
04.06.2017 05:10 16,1 C 16,1 C 16,1 C 91 % 1007,9 hPa 0,2 l/m 0,0 km/h (0 Bft) N 0 0 min 0,000 mm 0 W/m 14,6 C 16,1 C 0,0 km/h (0 Bft) 98 %
04.06.2017 05:20 16,1 C 16,1 C 16,2 C 91 % 1008,0 hPa 0,2 l/m 0,0 km/h (0 Bft) N 0 0 min 0,000 mm 0 W/m 14,6 C 16,1 C 0,0 km/h (0 Bft) 97 %
04.06.2017 05:30 16,1 C 16,1 C 16,1 C 91 % 1008,0 hPa 0,2 l/m 0,0 km/h (0 Bft) N 0 0 min 0,000 mm 0 W/m 14,6 C 16,1 C 0,0 km/h (0 Bft) 97 %
04.06.2017 05:40 16,2 C 16,1 C 16,2 C 91 % 1008,3 hPa 4,6 l/m 3,2 km/h (1 Bft) W-NW 292 0 min 0,000 mm 0 W/m 14,7 C 16,2 C 14,5 km/h (3 Bft) 98 %
04.06.2017 05:50 16,2 C 16,2 C 16,3 C 91 % 1008,2 hPa 3,6 l/m 4,8 km/h (1 Bft) W-NW 292 0 min 0,000 mm 0 W/m 14,7 C 16,2 C 9,7 km/h (2 Bft) 97 %
04.06.2017 06:00 16,2 C 16,2 C 16,2 C 91 % 1008,3 hPa 1,0 l/m 0,0 km/h (0 Bft) W-NW 292 0 min 0,000 mm 0 W/m 14,7 C 16,2 C 8,0 km/h (2 Bft) 98 %
04.06.2017 06:10 16,1 C 16,1 C 16,2 C 91 % 1008,3 hPa 0,4 l/m 4,8 km/h (1 Bft) NW 315 0 min 0,000 mm 5 W/m 14,6 C 16,1 C 14,5 km/h (3 Bft) 97 %
04.06.2017 06:20 16,0 C 16,0 C 16,1 C 91 % 1008,3 hPa 0,6 l/m 4,8 km/h (1 Bft) NW 315 0 min 0,000 mm 9 W/m 14,5 C 16,0 C 11,3 km/h (2 Bft) 98 %
04.06.2017 06:30 15,9 C 15,9 C 16,0 C 91 % 1008,4 hPa 0,2 l/m 6,4 km/h (2 Bft) NW 315 0 min 0,000 mm 14 W/m 14,4 C 15,9 C 11,3 km/h (2 Bft) 97 %
04.06.2017 06:40 15,8 C 15,8 C 15,9 C 91 % 1008,6 hPa 0,4 l/m 8,0 km/h (2 Bft) NW 315 0 min 0,000 mm 19 W/m 14,3 C 14,9 C 14,5 km/h (3 Bft) 98 %
04.06.2017 06:50 15,7 C 15,7 C 15,8 C 91 % 1008,6 hPa 0,4 l/m 6,4 km/h (2 Bft) NW 315 0 min 0,000 mm 23 W/m 14,2 C 15,7 C 16,1 km/h (3 Bft) 98 %
04.06.2017 07:00 15,7 C 15,7 C 15,7 C 91 % 1009,0 hPa 0,4 l/m 6,4 km/h (2 Bft) NW 315 0 min 0,025 mm 18 W/m 14,2 C 15,7 C 16,1 km/h (3 Bft) 97 %
04.06.2017 07:10 15,6 C 15,6 C 15,7 C 91 % 1009,4 hPa 0,6 l/m 8,0 km/h (2 Bft) NW 315 0 min 0,000 mm 19 W/m 14,1 C 14,7 C 16,1 km/h (3 Bft) 97 %
04.06.2017 07:20 15,3 C 15,3 C 15,6 C 91 % 1009,7 hPa 0,6 l/m 11,3 km/h (2 Bft) NW 315 0 min 0,000 mm 25 W/m 13,8 C 12,9 C 22,5 km/h (4 Bft) 97 %
04.06.2017 07:30 15,1 C 15,1 C 15,3 C 91 % 1010,1 hPa 0,4 l/m 11,3 km/h (2 Bft) NW 315 0 min 0,000 mm 21 W/m 13,6 C 12,7 C 24,1 km/h (4 Bft) 98 %
04.06.2017 07:40 15,1 C 15,1 C 15,1 C 91 % 1010,4 hPa 0,2 l/m 11,3 km/h (2 Bft) NW 315 0 min 0,000 mm 33 W/m 13,6 C 12,7 C 20,9 km/h (4 Bft) 97 %
04.06.2017 07:50 14,9 C 14,9 C 15,1 C 91 % 1010,5 hPa 0,2 l/m 11,3 km/h (2 Bft) NW 315 0 min 0,000 mm 49 W/m 13,4 C 12,4 C 19,3 km/h (3 Bft) 97 %
04.06.2017 08:00 14,8 C 14,8 C 14,9 C 91 % 1010,7 hPa 0,0 l/m 12,9 km/h (3 Bft) NW 315 0 min 0,025 mm 51 W/m 13,3 C 11,7 C 22,5 km/h (4 Bft) 97 %
04.06.2017 08:10 14,7 C 14,7 C 14,8 C 91 % 1011,0 hPa 0,0 l/m 12,9 km/h (3 Bft) NW 315 0 min 0,000 mm 54 W/m 13,2 C 11,6 C 24,1 km/h (4 Bft) 97 %
04.06.2017 08:20 14,6 C 14,6 C 14,7 C 91 % 1011,0 hPa 0,0 l/m 11,3 km/h (2 Bft) NW 315 0 min 0,000 mm 98 W/m 13,1 C 12,1 C 19,3 km/h (3 Bft) 98 %
04.06.2017 08:30 14,6 C 14,6 C 14,7 C 91 % 1011,3 hPa 0,0 l/m 11,3 km/h (2 Bft) NW 315 0 min 0,000 mm 113 W/m 13,1 C 12,1 C 24,1 km/h (4 Bft) 97 %
04.06.2017 08:40 14,7 C 14,6 C 14,7 C 91 % 1011,6 hPa 0,0 l/m 11,3 km/h (2 Bft) NW 315 0 min 0,000 mm 111 W/m 13,2 C 12,2 C 19,3 km/h (3 Bft) 98 %
04.06.2017 08:50 14,8 C 14,7 C 14,8 C 91 % 1011,8 hPa 0,2 l/m 6,4 km/h (2 Bft) NW 315 0 min 0,000 mm 151 W/m 13,3 C 14,8 C 16,1 km/h (3 Bft) 96 %
04.06.2017 09:00 15,1 C 14,8 C 15,1 C 91 % 1012,0 hPa 0,0 l/m 1,6 km/h (1 Bft) W-NW 292 10 min 0,051 mm 156 W/m 13,6 C 15,1 C 9,7 km/h (2 Bft) 98 %
04.06.2017 09:10 14,9 C 14,9 C 15,1 C 91 % 1012,2 hPa 0,0 l/m 4,8 km/h (1 Bft) W-NW 292 0 min 0,000 mm 127 W/m 13,4 C 14,9 C 17,7 km/h (3 Bft) 98 %
04.06.2017 09:20 14,9 C 14,8 C 14,9 C 91 % 1012,4 hPa 0,0 l/m 4,8 km/h (1 Bft) W 270 0 min 0,000 mm 132 W/m 13,4 C 14,9 C 12,9 km/h (3 Bft) 97 %
04.06.2017 09:30 15,1 C 14,9 C 15,1 C 91 % 1012,6 hPa 0,2 l/m 4,8 km/h (1 Bft) W 270 10 min 0,000 mm 181 W/m 13,6 C 15,1 C 11,3 km/h (2 Bft) 98 %
04.06.2017 09:40 15,1 C 15,1 C 15,1 C 91 % 1012,6 hPa 0,0 l/m 3,2 km/h (1 Bft) W-NW 292 10 min 0,000 mm 190 W/m 13,6 C 15,1 C 16,1 km/h (3 Bft) 97 %
04.06.2017 09:50 15,1 C 15,1 C 15,1 C 91 % 1012,7 hPa 0,0 l/m 4,8 km/h (1 Bft) W-NW 292 10 min 0,000 mm 190 W/m 13,6 C 15,1 C 19,3 km/h (3 Bft) 98 %
04.06.2017 10:00 15,1 C 15,1 C 15,1 C 91 % 1013,0 hPa 0,0 l/m 6,4 km/h (2 Bft) NW 315 10 min 0,076 mm 171 W/m 13,6 C 15,1 C 11,3 km/h (2 Bft) 97 %
04.06.2017 10:10 14,9 C 14,9 C 15,1 C 91 % 1013,1 hPa 0,0 l/m 6,4 km/h (2 Bft) W 270 10 min 0,000 mm 188 W/m 13,4 C 14,9 C 16,1 km/h (3 Bft) 98 %
04.06.2017 10:20 15,1 C 14,9 C 15,1 C 91 % 1013,3 hPa 0,0 l/m 6,4 km/h (2 Bft) W-NW 292 10 min 0,000 mm 257 W/m 13,6 C 15,1 C 19,3 km/h (3 Bft) 98 %
04.06.2017 10:30 15,1 C 15,1 C 15,1 C 91 % 1013,3 hPa 0,0 l/m 8,0 km/h (2 Bft) W-NW 292 10 min 0,000 mm 376 W/m 13,6 C 14,2 C 17,7 km/h (3 Bft) 97 %
04.06.2017 10:40 15,3 C 15,1 C 15,3 C 91 % 1013,3 hPa 0,0 l/m 6,4 km/h (2 Bft) W-NW 292 10 min 0,000 mm 294 W/m 13,8 C 15,3 C 17,7 km/h (3 Bft) 98 %
04.06.2017 10:50 15,3 C 15,3 C 15,4 C 91 % 1013,5 hPa 0,0 l/m 11,3 km/h (2 Bft) W-NW 292 10 min 0,000 mm 404 W/m 13,8 C 12,9 C 20,9 km/h (4 Bft) 97 %
04.06.2017 11:00 15,8 C 15,3 C 15,8 C 91 % 1013,7 hPa 0,0 l/m 8,0 km/h (2 Bft) W-NW 292 10 min 0,152 mm 696 W/m 14,3 C 14,9 C 19,3 km/h (3 Bft) 97 %
04.06.2017 11:10 15,7 C 15,7 C 15,8 C 90 % 1013,8 hPa 0,0 l/m 12,9 km/h (3 Bft) W-NW 292 10 min 0,000 mm 336 W/m 14,1 C 12,7 C 27,4 km/h (4 Bft) 98 %
04.06.2017 11:20 15,5 C 15,4 C 15,7 C 90 % 1013,9 hPa 0,0 l/m 11,3 km/h (2 Bft) W-NW 292 10 min 0,000 mm 441 W/m 13,9 C 13,1 C 30,6 km/h (5 Bft) 98 %
04.06.2017 11:30 15,8 C 15,5 C 15,8 C 90 % 1014,0 hPa 0,0 l/m 8,0 km/h (2 Bft) W-NW 292 10 min 0,000 mm 422 W/m 14,2 C 14,9 C 22,5 km/h (4 Bft) 98 %
04.06.2017 11:40 16,2 C 15,8 C 16,2 C 90 % 1014,0 hPa 0,0 l/m 8,0 km/h (2 Bft) W-NW 292 10 min 0,000 mm 649 W/m 14,6 C 15,4 C 19,3 km/h (3 Bft) 97 %
04.06.2017 11:50 16,8 C 16,2 C 16,8 C 88 % 1014,2 hPa 0,0 l/m 9,7 km/h (2 Bft) W-NW 292 10 min 0,000 mm 636 W/m 14,8 C 15,2 C 22,5 km/h (4 Bft) 98 %
04.06.2017 12:00 17,2 C 16,8 C 17,2 C 86 % 1014,2 hPa 0,0 l/m 12,9 km/h (3 Bft) NW 315 10 min 0,229 mm 670 W/m 14,8 C 14,5 C 25,7 km/h (4 Bft) 97 %
04.06.2017 12:10 17,4 C 17,2 C 17,4 C 84 % 1014,4 hPa 0,0 l/m 12,9 km/h (3 Bft) NW 315 10 min 0,000 mm 503 W/m 14,7 C 14,7 C 25,7 km/h (4 Bft) 98 %
04.06.2017 12:20 17,6 C 17,4 C 17,6 C 82 % 1014,6 hPa 0,0 l/m 11,3 km/h (2 Bft) NW 315 10 min 0,000 mm 547 W/m 14,5 C 15,5 C 25,7 km/h (4 Bft) 98 %
04.06.2017 12:30 17,5 C 17,5 C 17,6 C 82 % 1014,7 hPa 0,0 l/m 9,7 km/h (2 Bft) NW 315 10 min 0,000 mm 436 W/m 14,4 C 16,0 C 22,5 km/h (4 Bft) 97 %
04.06.2017 12:40 17,7 C 17,5 C 17,7 C 83 % 1014,7 hPa 0,0 l/m 8,7 km/h (2 Bft) NW 311 10 min 0,001 mm 577 W/m 14,8 C 16,6 C 22,5 km/h (4 Bft) 100 %
04.06.2017 12:50 17,9 C 17,7 C 17,9 C 80 % 1014,6 hPa 0,0 l/m 9,8 km/h (2 Bft) NW 323 10 min 0,000 mm 497 W/m 14,4 C 16,4 C 19,3 km/h (3 Bft) 99 %
04.06.2017 13:00 18,2 C 17,9 C 18,2 C 80 % 1014,6 hPa 0,0 l/m 9,5 km/h (2 Bft) NW 322 10 min 0,305 mm 455 W/m 14,7 C 16,8 C 22,5 km/h (4 Bft) 99 %
04.06.2017 13:10 18,3 C 18,2 C 18,3 C 79 % 1014,8 hPa 0,0 l/m 14,4 km/h (3 Bft) W-NW 302 10 min 0,000 mm 652 W/m 14,6 C 15,4 C 25,7 km/h (4 Bft) 99 %
04.06.2017 13:20 18,6 C 18,3 C 18,6 C 77 % 1014,8 hPa 0,0 l/m 9,0 km/h (2 Bft) NW 304 10 min 0,000 mm 339 W/m 14,5 C 17,5 C 22,5 km/h (4 Bft) 99 %
04.06.2017 13:30 18,7 C 18,5 C 18,7 C 77 % 1014,8 hPa 0,0 l/m 7,1 km/h (2 Bft) W 279 10 min 0,000 mm 388 W/m 14,6 C 18,4 C 20,9 km/h (4 Bft) 99 %
04.06.2017 13:40 18,8 C 18,7 C 18,8 C 76 % 1014,8 hPa 0,0 l/m 6,9 km/h (2 Bft) W-NW 300 10 min 0,000 mm 313 W/m 14,5 C 18,6 C 19,3 km/h (3 Bft) 100 %
04.06.2017 13:50 18,6 C 18,6 C 18,8 C 76 % 1014,8 hPa 0,0 l/m 9,6 km/h (2 Bft) NW 311 10 min 0,000 mm 339 W/m 14,3 C 17,2 C 20,9 km/h (4 Bft) 100 %
04.06.2017 14:00 18,9 C 18,6 C 18,9 C 77 % 1014,8 hPa 0,0 l/m 4,9 km/h (1 Bft) W-NW 290 10 min 0,000 mm 308 W/m 14,8 C 18,9 C 11,3 km/h (2 Bft) 100 %
04.06.2017 14:10 18,7 C 18,7 C 18,9 C 74 % 1014,8 hPa 0,0 l/m 4,8 km/h (1 Bft) W-NW 295 0 min 0,279 mm 120 W/m 14,0 C 18,7 C 17,7 km/h (3 Bft) 99 %
04.06.2017 14:20 17,9 C 17,9 C 18,7 C 81 % 1015,0 hPa 0,0 l/m 9,2 km/h (2 Bft) S-SW 204 0 min 0,000 mm 76 W/m 14,6 C 16,6 C 19,3 km/h (3 Bft) 99 %
04.06.2017 14:30 16,6 C 16,6 C 17,9 C 85 % 1015,1 hPa 0,0 l/m 10,6 km/h (2 Bft) SW 221 0 min 0,000 mm 65 W/m 14,1 C 14,6 C 24,1 km/h (4 Bft) 98 %
04.06.2017 14:40 16,1 C 16,1 C 16,6 C 88 % 1015,3 hPa 0,0 l/m 10,1 km/h (2 Bft) W 263 0 min 0,000 mm 65 W/m 14,1 C 14,3 C 22,5 km/h (4 Bft) 99 %
04.06.2017 14:50 15,7 C 15,7 C 16,1 C 89 % 1015,1 hPa 0,0 l/m 8,0 km/h (2 Bft) S-SW 203 10 min 0,000 mm 207 W/m 13,9 C 14,8 C 22,5 km/h (4 Bft) 100 %
04.06.2017 15:00 15,6 C 15,6 C 15,7 C 90 % 1015,2 hPa 0,0 l/m 9,1 km/h (2 Bft) SW 226 10 min 0,000 mm 195 W/m 14,0 C 14,2 C 22,5 km/h (4 Bft) 100 %
04.06.2017 15:10 15,7 C 15,6 C 15,7 C 90 % 1015,3 hPa 0,0 l/m 6,8 km/h (2 Bft) S-SW 212 10 min 0,102 mm 323 W/m 14,1 C 15,5 C 20,9 km/h (4 Bft) 98 %
04.06.2017 15:20 15,8 C 15,7 C 15,8 C 90 % 1015,3 hPa 0,0 l/m 7,5 km/h (2 Bft) SW 226 10 min 0,000 mm 323 W/m 14,2 C 15,2 C 17,7 km/h (3 Bft) 99 %
04.06.2017 15:30 16,3 C 15,8 C 16,3 C 90 % 1015,3 hPa 0,0 l/m 7,0 km/h (2 Bft) SW 216 10 min 0,000 mm 338 W/m 14,7 C 16,0 C 17,7 km/h (3 Bft) 98 %
04.06.2017 15:40 16,7 C 16,3 C 16,7 C 89 % 1015,2 hPa 0,0 l/m 3,6 km/h (1 Bft) SW 231 10 min 0,000 mm 213 W/m 14,9 C 16,7 C 14,5 km/h (3 Bft) 97 %
04.06.2017 15:50 17,3 C 16,7 C 17,3 C 87 % 1015,1 hPa 0,0 l/m 4,3 km/h (1 Bft) S-SW 199 10 min 0,000 mm 308 W/m 15,1 C 17,3 C 14,5 km/h (3 Bft) 98 %
04.06.2017 16:00 17,7 C 17,3 C 17,7 C 87 % 1015,0 hPa 0,0 l/m 5,9 km/h (2 Bft) S-SW 209 10 min 0,228 mm 821 W/m 15,5 C 17,7 C 16,1 km/h (3 Bft) 97 %
04.06.2017 16:10 18,0 C 17,7 C 18,0 C 86 % 1014,9 hPa 0,0 l/m 7,8 km/h (2 Bft) S-SW 208 10 min 0,000 mm 271 W/m 15,6 C 17,3 C 17,7 km/h (3 Bft) 97 %
04.06.2017 16:20 17,9 C 17,9 C 18,0 C 84 % 1014,9 hPa 0,0 l/m 4,5 km/h (1 Bft) SW 214 10 min 0,000 mm 193 W/m 15,2 C 17,9 C 14,5 km/h (3 Bft) 97 %
04.06.2017 16:30 17,7 C 17,7 C 17,9 C 84 % 1014,8 hPa 0,0 l/m 4,2 km/h (1 Bft) S 175 10 min 0,000 mm 394 W/m 15,0 C 17,7 C 14,5 km/h (3 Bft) 97 %
04.06.2017 16:40 17,6 C 17,6 C 17,7 C 84 % 1014,8 hPa 0,0 l/m 4,9 km/h (1 Bft) S-SW 212 10 min 0,000 mm 188 W/m 14,9 C 17,6 C 14,5 km/h (3 Bft) 97 %
04.06.2017 16:50 18,1 C 17,6 C 18,1 C 84 % 1014,8 hPa 0,0 l/m 4,5 km/h (1 Bft) SW 224 10 min 0,000 mm 246 W/m 15,4 C 18,1 C 16,1 km/h (3 Bft) 97 %
04.06.2017 17:00 18,7 C 18,1 C 18,7 C 80 % 1014,8 hPa 0,0 l/m 7,8 km/h (2 Bft) SW 228 0 min 0,000 mm 130 W/m 15,2 C 18,1 C 16,1 km/h (3 Bft) 97 %
04.06.2017 17:10 18,8 C 18,7 C 18,8 C 81 % 1014,8 hPa 0,0 l/m 8,2 km/h (2 Bft) SW 222 10 min 0,178 mm 171 W/m 15,5 C 18,0 C 17,7 km/h (3 Bft) 98 %
04.06.2017 17:20 19,2 C 18,8 C 19,2 C 77 % 1014,8 hPa 0,0 l/m 7,3 km/h (2 Bft) SW 226 10 min 0,000 mm 190 W/m 15,1 C 18,8 C 20,9 km/h (4 Bft) 98 %
04.06.2017 17:30 19,2 C 19,2 C 19,2 C 77 % 1014,7 hPa 0,0 l/m 7,3 km/h (2 Bft) SW 229 0 min 0,000 mm 90 W/m 15,1 C 18,8 C 20,9 km/h (4 Bft) 97 %
04.06.2017 17:40 19,1 C 19,1 C 19,2 C 77 % 1014,7 hPa 0,0 l/m 10,7 km/h (2 Bft) S 188 0 min 0,000 mm 109 W/m 15,0 C 17,4 C 20,9 km/h (4 Bft) 98 %
04.06.2017 17:50 18,9 C 18,9 C 19,1 C 77 % 1014,8 hPa 0,0 l/m 10,2 km/h (2 Bft) S-SW 210 0 min 0,000 mm 97 W/m 14,8 C 17,4 C 24,1 km/h (4 Bft) 97 %
04.06.2017 18:00 18,8 C 18,8 C 18,9 C 76 % 1014,7 hPa 0,0 l/m 5,8 km/h (2 Bft) S-SW 205 0 min 0,102 mm 116 W/m 14,5 C 18,8 C 17,7 km/h (3 Bft) 97 %
04.06.2017 18:10 18,5 C 18,5 C 18,8 C 76 % 1014,7 hPa 0,0 l/m 3,6 km/h (1 Bft) W 267 10 min 0,000 mm 179 W/m 14,2 C 18,5 C 14,5 km/h (3 Bft) 98 %
04.06.2017 18:20 18,4 C 18,4 C 18,5 C 76 % 1014,7 hPa 0,0 l/m 3,2 km/h (1 Bft) W-SW 237 0 min 0,000 mm 81 W/m 14,1 C 18,4 C 17,7 km/h (3 Bft) 98 %
04.06.2017 18:30 18,3 C 18,3 C 18,4 C 76 % 1014,6 hPa 0,0 l/m 5,7 km/h (1 Bft) SW 223 0 min 0,000 mm 113 W/m 14,0 C 18,3 C 16,1 km/h (3 Bft) 98 %
04.06.2017 18:40 18,2 C 18,2 C 18,3 C 78 % 1014,6 hPa 0,0 l/m 4,9 km/h (1 Bft) S-SW 202 0 min 0,000 mm 120 W/m 14,3 C 18,2 C 14,5 km/h (3 Bft) 97 %
04.06.2017 18:50 18,1 C 18,1 C 18,2 C 76 % 1014,6 hPa 0,0 l/m 2,8 km/h (1 Bft) SW 217 0 min 0,000 mm 128 W/m 13,8 C 18,1 C 11,3 km/h (2 Bft) 98 %
04.06.2017 19:00 17,9 C 17,9 C 18,1 C 78 % 1014,6 hPa 0,0 l/m 0,4 km/h (0 Bft) S-SW 197 0 min 0,076 mm 120 W/m 14,0 C 17,9 C 6,4 km/h (2 Bft) 97 %
04.06.2017 19:10 17,9 C 17,9 C 17,9 C 76 % 1014,6 hPa 0,0 l/m 1,0 km/h (0 Bft) W-SW 256 0 min 0,000 mm 97 W/m 13,6 C 17,9 C 14,5 km/h (3 Bft) 97 %
04.06.2017 19:20 18,0 C 17,9 C 18,0 C 76 % 1014,7 hPa 0,0 l/m 3,4 km/h (1 Bft) W-SW 254 0 min 0,000 mm 81 W/m 13,7 C 18,0 C 11,3 km/h (2 Bft) 98 %
04.06.2017 19:30 18,0 C 18,0 C 18,1 C 76 % 1014,6 hPa 0,0 l/m 2,6 km/h (1 Bft) W-SW 249 0 min 0,000 mm 148 W/m 13,7 C 18,0 C 9,7 km/h (2 Bft) 97 %
04.06.2017 19:40 17,9 C 17,9 C 18,0 C 75 % 1014,7 hPa 0,0 l/m 3,1 km/h (1 Bft) W 259 0 min 0,000 mm 51 W/m 13,4 C 17,9 C 11,3 km/h (2 Bft) 98 %
04.06.2017 19:50 17,7 C 17,7 C 17,9 C 73 % 1014,7 hPa 0,0 l/m 5,1 km/h (1 Bft) W-SW 257 0 min 0,000 mm 44 W/m 12,8 C 17,7 C 12,9 km/h (3 Bft) 97 %
04.06.2017 20:00 17,5 C 17,5 C 17,7 C 73 % 1014,7 hPa 0,0 l/m 3,8 km/h (1 Bft) W-SW 251 0 min 0,051 mm 49 W/m 12,6 C 17,5 C 9,7 km/h (2 Bft) 97 %
04.06.2017 20:10 17,3 C 17,3 C 17,5 C 75 % 1014,8 hPa 0,0 l/m 4,4 km/h (1 Bft) W-SW 257 0 min 0,000 mm 54 W/m 12,8 C 17,3 C 11,3 km/h (2 Bft) 98 %
04.06.2017 20:20 17,2 C 17,2 C 17,3 C 75 % 1014,7 hPa 0,0 l/m 3,5 km/h (1 Bft) W-SW 257 0 min 0,000 mm 49 W/m 12,7 C 17,2 C 9,7 km/h (2 Bft) 97 %
04.06.2017 20:30 17,1 C 17,1 C 17,2 C 76 % 1014,9 hPa 0,0 l/m 0,1 km/h (0 Bft) W 260 0 min 0,000 mm 32 W/m 12,8 C 17,1 C 3,2 km/h (1 Bft) 98 %
04.06.2017 20:40 16,9 C 16,9 C 17,1 C 77 % 1014,9 hPa 0,0 l/m 0,2 km/h (0 Bft) W 260 0 min 0,000 mm 19 W/m 12,8 C 16,9 C 4,8 km/h (1 Bft) 97 %
04.06.2017 20:50 16,7 C 16,7 C 16,9 C 78 % 1014,9 hPa 0,0 l/m 0,0 km/h (0 Bft) W 260 0 min 0,000 mm 16 W/m 12,8 C 16,7 C 0,0 km/h (0 Bft) 98 %
04.06.2017 21:00 16,2 C 16,2 C 16,7 C 79 % 1015,1 hPa 0,0 l/m 0,0 km/h (0 Bft) W 260 0 min 0,025 mm 11 W/m 12,6 C 16,2 C 0,0 km/h (0 Bft) 98 %
04.06.2017 21:10 15,9 C 15,9 C 16,2 C 80 % 1015,1 hPa 0,0 l/m 0,0 km/h (0 Bft) N 0 0 min 0,000 mm 11 W/m 12,5 C 15,9 C 0,0 km/h (0 Bft) 100 %
04.06.2017 21:20 15,5 C 15,5 C 15,9 C 83 % 1015,2 hPa 0,0 l/m 0,0 km/h (0 Bft) N 0 0 min 0,000 mm 5 W/m 12,6 C 15,5 C 0,0 km/h (0 Bft) 100 %
04.06.2017 21:30 15,1 C 15,1 C 15,5 C 84 % 1015,2 hPa 0,0 l/m 0,0 km/h (0 Bft) N 0 0 min 0,000 mm 0 W/m 12,4 C 15,1 C 0,0 km/h (0 Bft) 100 %
04.06.2017 21:40 14,9 C 14,8 C 15,1 C 84 % 1015,2 hPa 0,0 l/m 0,0 km/h (0 Bft) W 270 0 min 0,000 mm 0 W/m 12,2 C 14,9 C 1,6 km/h (1 Bft) 100 %
04.06.2017 21:50 14,7 C 14,7 C 14,8 C 84 % 1015,3 hPa 0,0 l/m 0,0 km/h (0 Bft) N 0 0 min 0,000 mm 0 W/m 12,0 C 14,7 C 0,0 km/h (0 Bft) 100 %
04.06.2017 22:00 14,4 C 14,4 C 14,7 C 85 % 1015,3 hPa 0,0 l/m 0,0 km/h (0 Bft) N 0 0 min 0,000 mm 0 W/m 11,9 C 14,4 C 0,0 km/h (0 Bft) 100 %
04.06.2017 22:10 14,2 C 14,2 C 14,4 C 86 % 1015,2 hPa 0,0 l/m 0,0 km/h (0 Bft) N 0 0 min 0,000 mm 0 W/m 11,9 C 14,2 C 0,0 km/h (0 Bft) 100 %
04.06.2017 22:20 13,9 C 13,9 C 14,2 C 87 % 1015,2 hPa 0,0 l/m 0,0 km/h (0 Bft) N 0 0 min 0,000 mm 0 W/m 11,8 C 13,9 C 0,0 km/h (0 Bft) 100 %
04.06.2017 22:30 13,6 C 13,6 C 13,9 C 88 % 1015,3 hPa 0,0 l/m 0,0 km/h (0 Bft) N 0 0 min 0,000 mm 0 W/m 11,6 C 13,6 C 0,0 km/h (0 Bft) 100 %
04.06.2017 22:40 13,3 C 13,3 C 13,6 C 88 % 1015,3 hPa 0,0 l/m 0,0 km/h (0 Bft) N 0 0 min 0,000 mm 0 W/m 11,4 C 13,3 C 0,0 km/h (0 Bft) 100 %
04.06.2017 22:50 13,1 C 13,1 C 13,3 C 88 % 1015,2 hPa 0,0 l/m 0,0 km/h (0 Bft) N 0 0 min 0,000 mm 0 W/m 11,2 C 13,1 C 0,0 km/h (0 Bft) 100 %
04.06.2017 23:00 13,0 C 13,0 C 13,1 C 89 % 1015,2 hPa 0,0 l/m 0,0 km/h (0 Bft) N 0 0 min 0,000 mm 0 W/m 11,2 C 13,0 C 0,0 km/h (0 Bft) 100 %
04.06.2017 23:10 12,9 C 12,9 C 13,0 C 89 % 1015,1 hPa 0,0 l/m 0,0 km/h (0 Bft) N 0 0 min 0,000 mm 0 W/m 11,1 C 12,9 C 0,0 km/h (0 Bft) 100 %
04.06.2017 23:20 12,9 C 12,9 C 12,9 C 89 % 1014,9 hPa 0,0 l/m 0,0 km/h (0 Bft) N 0 0 min 0,000 mm 0 W/m 11,1 C 12,9 C 0,0 km/h (0 Bft) 90 %
04.06.2017 23:30 12,8 C 12,8 C 12,9 C 89 % 1014,9 hPa 0,0 l/m 0,0 km/h (0 Bft) N 0 0 min 0,000 mm 0 W/m 11,0 C 12,8 C 0,0 km/h (0 Bft) 100 %
04.06.2017 23:40 12,7 C 12,7 C 12,8 C 89 % 1014,8 hPa 0,0 l/m 0,0 km/h (0 Bft) N 0 0 min 0,000 mm 0 W/m 10,9 C 12,7 C 0,0 km/h (0 Bft) 100 %
04.06.2017 23:50 12,7 C 12,7 C 12,7 C 89 % 1014,8 hPa 0,0 l/m 0,0 km/h (0 Bft) N 0 0 min 0,000 mm 0 W/m 10,9 C 12,7 C 0,0 km/h (0 Bft) 100 %
_ Min-Zeit 23:40 23:40 23:50 19:50 04:50 - 00:00 - - - - - 23:40 08:10 00:00 01:10
Minimum _ 12,7 C 12,7 C 12,7 C 73 % 1007,9 hPa - 0,0 km/h (0 Bft) - - - - - 10,9 C 11,6 C 0,0 km/h (0 Bft) 87 %
_ Max-Zeit 17:20 17:30 17:20 02:30 14:40 05:40 13:10 - - 09:00 13:00 16:00 16:10 14:00 11:20 12:40
Maximum _ 19,2 C 19,2 C 19,2 C 91 % 1015,3 hPa 4,6 l/m 14,4 km/h
W-NW (3 Bft)
- - 10 min 0,305 mm 821 W/m 15,6 C 18,9 C 30,6 km/h
NW (5 Bft)
100 %
Durchschnitt _ 16,3 C 16,2 C 16,4 C 86 % 1012,5 hPa #16,0 l/m 4,4 km/h (1 Bft) NW - #7:30 h #1,905 mm 210 W/m 13,9 C 15,8 C 11,1 km/h (2 Bft) 98 %
PRIVATE WETTERSTATION BILLIGHEIM-ALLFELD - www.neckar-odenwald-wetter.de - Holger Sonntag